createdAt,value
2023-04-02T00:00:20.594Z,9.00
2023-04-02T00:01:20.638Z,8.99
2023-04-02T00:02:20.642Z,8.98
2023-04-02T00:03:20.788Z,8.93
2023-04-02T00:04:20.571Z,8.96
2023-04-02T00:05:20.629Z,8.95
2023-04-02T00:06:20.585Z,9.00
2023-04-02T00:07:20.625Z,8.99
2023-04-02T00:08:20.601Z,9.05
2023-04-02T00:09:20.588Z,9.06
2023-04-02T00:10:20.609Z,9.07
2023-04-02T00:11:20.604Z,9.06
2023-04-02T00:12:20.617Z,9.05
2023-04-02T00:13:20.627Z,9.03
2023-04-02T00:14:20.597Z,9.02
2023-04-02T00:15:20.603Z,9.00
2023-04-02T00:16:20.621Z,9.03
2023-04-02T00:17:20.609Z,9.02
2023-04-02T00:18:20.651Z,8.97
2023-04-02T00:19:20.642Z,8.96
2023-04-02T00:20:20.637Z,8.97
2023-04-02T00:21:20.656Z,8.98
2023-04-02T00:22:20.619Z,9.02
2023-04-02T00:23:20.652Z,9.08
2023-04-02T00:24:20.633Z,9.09
2023-04-02T00:25:20.732Z,9.06
2023-04-02T00:26:20.611Z,9.07
2023-04-02T00:27:20.641Z,9.09
2023-04-02T00:28:20.646Z,9.01
2023-04-02T00:29:20.680Z,9.03
2023-04-02T00:30:20.649Z,9.07
2023-04-02T00:32:20.660Z,9.12
2023-04-02T00:33:20.650Z,9.15
2023-04-02T00:34:20.654Z,9.20
2023-04-02T00:35:20.637Z,9.25
2023-04-02T00:36:20.748Z,9.30
2023-04-02T00:37:20.640Z,9.27
2023-04-02T00:38:20.650Z,9.26
2023-04-02T00:39:20.701Z,9.27
2023-04-02T00:40:20.666Z,9.28
2023-04-02T00:41:20.720Z,9.32
2023-04-02T00:43:20.670Z,9.29
2023-04-02T00:44:20.693Z,9.22
2023-04-02T00:45:20.676Z,9.23
2023-04-02T00:46:20.743Z,9.22
2023-04-02T00:47:20.692Z,9.24
2023-04-02T00:48:20.674Z,9.26
2023-04-02T00:49:20.709Z,9.28
2023-04-02T00:50:20.695Z,9.31
2023-04-02T00:51:20.726Z,9.30
2023-04-02T00:52:20.688Z,9.28
2023-04-02T00:53:20.680Z,9.23
2023-04-02T00:54:20.698Z,9.21
2023-04-02T00:55:20.712Z,9.20
2023-04-02T00:56:20.712Z,9.21
2023-04-02T00:58:20.737Z,9.22
2023-04-02T00:59:20.771Z,9.25
2023-04-02T01:00:20.694Z,9.24
2023-04-02T01:01:20.783Z,9.25
2023-04-02T01:02:20.754Z,9.28
2023-04-02T01:03:20.793Z,9.27
2023-04-02T01:04:20.753Z,9.29
2023-04-02T01:05:20.735Z,9.32
2023-04-02T01:06:20.739Z,9.33
2023-04-02T01:07:20.714Z,9.31
2023-04-02T01:08:20.721Z,9.32
2023-04-02T01:09:20.749Z,9.29
2023-04-02T01:10:20.733Z,9.28
2023-04-02T01:11:20.760Z,9.21
2023-04-02T01:12:20.737Z,9.07
2023-04-02T01:13:20.759Z,9.02
2023-04-02T01:15:20.753Z,9.05
2023-04-02T01:16:20.940Z,9.09
2023-04-02T01:17:20.771Z,9.11
2023-04-02T01:18:20.764Z,9.13
2023-04-02T01:19:20.744Z,9.16
2023-04-02T01:20:20.786Z,9.19
2023-04-02T01:21:20.790Z,9.21
2023-04-02T01:22:20.759Z,9.18
2023-04-02T01:23:20.777Z,9.22
2023-04-02T01:24:20.776Z,9.24
2023-04-02T01:25:20.772Z,9.31
2023-04-02T01:26:20.820Z,9.33
2023-04-02T01:27:20.817Z,9.36
2023-04-02T01:28:20.802Z,9.38
2023-04-02T01:29:20.767Z,9.40
2023-04-02T01:30:20.774Z,9.44
2023-04-02T01:31:20.834Z,9.45
2023-04-02T01:32:20.811Z,9.48
2023-04-02T01:33:20.768Z,9.50
2023-04-02T01:34:20.822Z,9.52
2023-04-02T01:35:20.815Z,9.54
2023-04-02T01:36:20.872Z,9.58
2023-04-02T01:37:20.820Z,9.63
2023-04-02T01:38:20.847Z,9.65
2023-04-02T01:39:20.808Z,9.67
2023-04-02T01:40:20.839Z,9.68
2023-04-02T01:41:20.832Z,9.69
2023-04-02T01:43:20.841Z,9.72
2023-04-02T01:44:20.841Z,9.75
2023-04-02T01:45:20.852Z,9.77
2023-04-02T01:46:20.876Z,9.76
2023-04-02T01:47:20.854Z,9.73
2023-04-02T01:48:20.853Z,9.62
2023-04-02T01:49:20.809Z,9.58
2023-04-02T01:50:20.861Z,9.59
2023-04-02T01:52:20.844Z,9.61
2023-04-02T01:53:20.851Z,9.66
2023-04-02T01:54:20.832Z,9.64
2023-04-02T01:55:20.829Z,9.66
2023-04-02T01:56:20.867Z,9.64
2023-04-02T01:59:20.874Z,9.63
2023-04-02T02:00:20.865Z,9.59
2023-04-02T02:01:20.990Z,9.60
2023-04-02T02:02:20.910Z,9.57
2023-04-02T02:04:20.849Z,9.56
2023-04-02T02:06:20.865Z,9.57
2023-04-02T02:07:20.914Z,9.56
2023-04-02T02:09:20.883Z,9.53
2023-04-02T02:10:20.886Z,9.49
2023-04-02T02:11:20.926Z,9.43
2023-04-02T02:13:20.880Z,9.38
2023-04-02T02:14:20.867Z,9.28
2023-04-02T02:15:20.884Z,9.20
2023-04-02T02:16:20.912Z,9.16
2023-04-02T02:17:20.916Z,9.17
2023-04-02T02:18:20.882Z,9.20
2023-04-02T02:19:20.904Z,9.18
2023-04-02T02:20:20.900Z,9.17
2023-04-02T02:21:20.923Z,9.22
2023-04-02T02:22:20.915Z,9.24
2023-04-02T02:23:20.960Z,9.29
2023-04-02T02:24:21.007Z,9.27
2023-04-02T02:25:20.948Z,9.29
2023-04-02T02:26:20.977Z,9.31
2023-04-02T02:27:20.910Z,9.32
2023-04-02T02:28:20.938Z,9.33
2023-04-02T02:29:20.920Z,9.32
2023-04-02T02:31:20.999Z,9.33
2023-04-02T02:32:20.988Z,9.30
2023-04-02T02:33:20.937Z,9.29
2023-04-02T02:34:20.931Z,9.20
2023-04-02T02:35:20.955Z,9.18
2023-04-02T02:36:20.939Z,9.17
2023-04-02T02:37:20.969Z,9.16
2023-04-02T02:38:20.988Z,9.15
2023-04-02T02:39:20.979Z,9.11
2023-04-02T02:40:20.947Z,9.14
2023-04-02T02:42:20.971Z,9.10
2023-04-02T02:43:20.987Z,9.08
2023-04-02T02:44:21.034Z,9.07
2023-04-02T02:45:20.994Z,9.08
2023-04-02T02:46:21.007Z,9.09
2023-04-02T02:47:20.994Z,9.10
2023-04-02T02:48:21.015Z,9.13
2023-04-02T02:49:21.002Z,9.15
2023-04-02T02:50:21.021Z,9.20
2023-04-02T02:51:20.977Z,9.24
2023-04-02T02:52:20.975Z,9.26
2023-04-02T02:53:21.016Z,9.27
2023-04-02T02:54:21.008Z,9.22
2023-04-02T02:55:21.010Z,9.23
2023-04-02T02:56:20.982Z,9.21
2023-04-02T02:57:21.005Z,9.22
2023-04-02T02:58:20.992Z,9.25
2023-04-02T02:59:21.044Z,9.26
2023-04-02T03:00:21.028Z,9.22
2023-04-02T03:03:21.107Z,9.20
2023-04-02T03:04:21.067Z,9.23
2023-04-02T03:05:21.035Z,9.24
2023-04-02T03:06:21.067Z,9.20
2023-04-02T03:07:21.021Z,9.18
2023-04-02T03:08:21.015Z,9.14
2023-04-02T03:11:21.024Z,9.11
2023-04-02T03:12:21.058Z,9.12
2023-04-02T03:13:21.062Z,9.10
2023-04-02T03:14:21.060Z,9.08
2023-04-02T03:15:21.030Z,9.03
2023-04-02T03:16:21.166Z,9.04
2023-04-02T03:17:21.049Z,8.99
2023-04-02T03:18:21.074Z,8.96
2023-04-02T03:20:21.075Z,9.00
2023-04-02T03:22:21.085Z,9.03
2023-04-02T03:23:21.043Z,9.07
2023-04-02T03:25:21.074Z,9.09
2023-04-02T03:26:21.104Z,9.13
2023-04-02T03:27:21.098Z,9.14
2023-04-02T03:28:21.107Z,9.13
2023-04-02T03:29:21.242Z,9.12
2023-04-02T03:30:21.067Z,9.10
2023-04-02T03:31:21.096Z,9.11
2023-04-02T03:32:21.097Z,9.09
2023-04-02T03:33:21.065Z,9.11
2023-04-02T03:34:21.088Z,9.06
2023-04-02T03:35:21.117Z,9.01
2023-04-02T03:36:21.138Z,8.99
2023-04-02T03:37:21.113Z,9.00
2023-04-02T03:38:21.101Z,9.04
2023-04-02T03:41:21.104Z,8.97
2023-04-02T03:42:21.098Z,8.93
2023-04-02T03:43:21.104Z,8.83
2023-04-02T03:44:21.168Z,8.73
2023-04-02T03:45:21.113Z,8.67
2023-04-02T03:46:21.162Z,8.53
2023-04-02T03:47:21.177Z,8.45
2023-04-02T03:48:21.132Z,8.42
2023-04-02T03:49:21.144Z,8.47
2023-04-02T03:50:21.175Z,8.52
2023-04-02T03:51:21.138Z,8.59
2023-04-02T03:52:21.148Z,8.67
2023-04-02T03:53:21.163Z,8.74
2023-04-02T03:54:21.118Z,8.78
2023-04-02T03:55:21.157Z,8.81
2023-04-02T03:56:21.113Z,8.87
2023-04-02T03:57:21.187Z,8.92
2023-04-02T03:58:21.183Z,8.95
2023-04-02T03:59:21.140Z,8.99
2023-04-02T04:00:21.147Z,9.03
2023-04-02T04:01:21.166Z,9.06
2023-04-02T04:02:21.240Z,9.05
2023-04-02T04:03:21.179Z,9.01
2023-04-02T04:04:21.228Z,8.94
2023-04-02T04:05:21.170Z,8.91
2023-04-02T04:06:21.363Z,8.89
2023-04-02T04:07:21.197Z,8.90
2023-04-02T04:08:21.182Z,8.91
2023-04-02T04:09:21.197Z,8.95
2023-04-02T04:10:21.182Z,8.99
2023-04-02T04:11:21.199Z,9.01
2023-04-02T04:12:21.190Z,9.04
2023-04-02T04:13:21.186Z,9.08
2023-04-02T04:14:21.198Z,9.12
2023-04-02T04:15:21.205Z,9.19
2023-04-02T04:16:21.190Z,9.22
2023-04-02T04:17:21.212Z,9.23
2023-04-02T04:18:21.206Z,9.25
2023-04-02T04:19:21.218Z,9.26
2023-04-02T04:20:21.187Z,9.27
2023-04-02T04:21:21.250Z,9.28
2023-04-02T04:22:21.189Z,9.31
2023-04-02T04:23:21.191Z,9.35
2023-04-02T04:24:22.386Z,9.36
2023-04-02T04:25:21.196Z,9.35
2023-04-02T04:27:21.228Z,9.38
2023-04-02T04:28:21.227Z,9.40
2023-04-02T04:30:21.227Z,9.41
2023-04-02T04:31:22.752Z,9.42
2023-04-02T04:33:21.243Z,9.44
2023-04-02T04:34:21.273Z,9.45
2023-04-02T04:35:21.246Z,9.43
2023-04-02T04:36:21.251Z,9.41
2023-04-02T04:37:21.229Z,9.39
2023-04-02T04:38:21.240Z,9.36
2023-04-02T04:39:21.267Z,9.18
2023-04-02T04:40:21.244Z,9.06
2023-04-02T04:41:21.237Z,8.97
2023-04-02T04:42:21.278Z,8.95
2023-04-02T04:43:21.257Z,8.99
2023-04-02T04:44:21.278Z,9.03
2023-04-02T04:45:21.265Z,9.07
2023-04-02T04:46:21.281Z,9.11
2023-04-02T04:47:21.307Z,9.18
2023-04-02T04:48:21.256Z,9.16
2023-04-02T04:49:21.260Z,9.19
2023-04-02T04:50:21.260Z,9.16
2023-04-02T04:51:21.273Z,9.18
2023-04-02T04:53:21.306Z,9.15
2023-04-02T04:54:21.270Z,9.17
2023-04-02T04:55:21.290Z,9.22
2023-04-02T04:56:21.281Z,9.25
2023-04-02T04:57:21.402Z,9.30
2023-04-02T04:58:21.293Z,9.31
2023-04-02T04:59:21.282Z,9.35
2023-04-02T05:00:21.308Z,9.39
2023-04-02T05:01:21.368Z,9.38
2023-04-02T05:02:21.326Z,9.35
2023-04-02T05:03:21.341Z,9.37
2023-04-02T05:04:21.410Z,9.34
2023-04-02T05:05:21.345Z,9.36
2023-04-02T05:06:21.284Z,9.40
2023-04-02T05:08:21.322Z,9.44
2023-04-02T05:09:21.298Z,9.43
2023-04-02T05:10:21.375Z,9.41
2023-04-02T05:11:21.340Z,9.37
2023-04-02T05:13:21.359Z,9.31
2023-04-02T05:15:21.330Z,9.34
2023-04-02T05:16:21.391Z,9.36
2023-04-02T05:17:21.384Z,9.40
2023-04-02T05:18:21.395Z,9.42
2023-04-02T05:19:21.346Z,9.45
2023-04-02T05:20:21.379Z,9.48
2023-04-02T05:21:21.395Z,9.49
2023-04-02T05:22:21.372Z,9.50
2023-04-02T05:24:21.360Z,9.51
2023-04-02T05:26:21.393Z,9.50
2023-04-02T05:27:21.371Z,9.51
2023-04-02T05:28:21.356Z,9.52
2023-04-02T05:29:21.386Z,9.53
2023-04-02T05:30:21.377Z,9.55
2023-04-02T05:32:21.389Z,9.57
2023-04-02T05:33:21.395Z,9.56
2023-04-02T05:34:21.389Z,9.58
2023-04-02T05:35:21.385Z,9.56
2023-04-02T05:36:21.463Z,9.57
2023-04-02T05:37:21.373Z,9.56
2023-04-02T05:38:21.412Z,9.57
2023-04-02T05:40:21.407Z,9.58
2023-04-02T05:41:21.437Z,9.57
2023-04-02T05:42:21.390Z,9.60
2023-04-02T05:44:21.385Z,9.57
2023-04-02T05:46:21.533Z,9.45
2023-04-02T05:47:21.468Z,9.39
2023-04-02T05:48:21.412Z,9.36
2023-04-02T05:49:21.461Z,9.38
2023-04-02T05:50:21.443Z,9.39
2023-04-02T05:51:21.451Z,9.44
2023-04-02T05:52:21.453Z,9.47
2023-04-02T05:53:21.441Z,9.50
2023-04-02T05:54:21.417Z,9.52
2023-04-02T05:55:21.430Z,9.53
2023-04-02T05:56:21.484Z,9.56
2023-04-02T05:57:24.894Z,9.61
2023-04-02T05:58:35.345Z,9.65
2023-04-02T05:59:21.444Z,9.69
2023-04-02T06:00:21.483Z,9.72
2023-04-02T06:01:21.487Z,9.75
2023-04-02T06:02:21.486Z,9.76
2023-04-02T06:03:21.519Z,9.81
2023-04-02T06:04:21.478Z,9.87
2023-04-02T06:05:21.474Z,9.91
2023-04-02T06:05:55.899Z,9.91
2023-04-02T06:06:21.446Z,9.95
2023-04-02T06:07:21.513Z,9.97
2023-04-02T06:08:21.484Z,10.00
2023-04-02T06:09:21.504Z,10.02
2023-04-02T06:10:23.543Z,10.07
2023-04-02T06:11:21.506Z,10.13
2023-04-02T06:12:21.528Z,10.16
2023-04-02T06:13:21.488Z,10.17
2023-04-02T06:14:21.490Z,10.18
2023-04-02T06:16:21.547Z,10.20
2023-04-02T06:17:21.490Z,10.21
2023-04-02T06:18:21.458Z,10.22
2023-04-02T06:19:21.495Z,10.24
2023-04-02T06:20:21.506Z,10.28
2023-04-02T06:21:21.480Z,10.29
2023-04-02T06:22:21.530Z,10.31
2023-04-02T06:23:21.523Z,10.35
2023-04-02T06:24:21.486Z,10.38
2023-04-02T06:25:21.523Z,10.37
2023-04-02T06:27:21.486Z,10.41
2023-04-02T06:28:21.596Z,10.46
2023-04-02T06:29:21.493Z,10.50
2023-04-02T06:30:21.507Z,10.56
2023-04-02T06:31:21.530Z,10.62
2023-04-02T06:32:21.539Z,10.66
2023-04-02T07:26:59.941Z,12.11
2023-04-02T07:27:10.848Z,12.13
2023-04-02T07:27:21.667Z,12.13
2023-04-02T07:28:07.357Z,12.18
2023-04-02T07:29:07.362Z,12.24
2023-04-02T07:30:07.388Z,12.32
2023-04-02T07:31:07.373Z,12.40
2023-04-02T07:32:07.405Z,12.48
2023-04-02T07:33:07.356Z,12.50
2023-04-02T07:34:07.454Z,12.52
2023-04-02T07:35:07.382Z,12.51
2023-04-02T07:36:07.434Z,12.50
2023-04-02T07:37:07.389Z,12.52
2023-04-02T07:38:07.417Z,12.56
2023-04-02T07:39:07.411Z,12.64
2023-04-02T07:40:07.368Z,12.67
2023-04-02T07:41:07.406Z,12.74
2023-04-02T07:42:07.362Z,12.78
2023-04-02T07:44:07.428Z,12.83
2023-04-02T07:45:07.426Z,12.91
2023-04-02T07:46:07.435Z,13.00
2023-04-02T07:47:07.518Z,13.03
2023-04-02T07:48:07.462Z,13.06
2023-04-02T07:49:07.408Z,12.98
2023-04-02T07:50:07.565Z,12.94
2023-04-02T07:51:07.406Z,12.95
2023-04-02T07:52:07.437Z,12.99
2023-04-02T07:53:07.432Z,13.04
2023-04-02T07:54:07.400Z,13.15
2023-04-02T07:55:07.397Z,13.29
2023-04-02T07:56:07.474Z,13.42
2023-04-02T07:57:07.427Z,13.51
2023-04-02T07:58:07.412Z,13.58
2023-04-02T07:59:07.441Z,14.45
2023-04-02T08:00:07.438Z,16.17
2023-04-02T08:01:07.440Z,17.84
2023-04-02T08:02:07.495Z,18.35
2023-04-02T08:03:07.564Z,18.44
2023-04-02T08:04:07.497Z,18.59
2023-04-02T08:05:07.482Z,19.29
2023-04-02T08:06:07.508Z,20.44
2023-04-02T08:07:07.517Z,20.27
2023-04-02T08:08:07.500Z,19.89
2023-04-02T08:09:07.506Z,19.54
2023-04-02T08:10:07.467Z,20.41
2023-04-02T08:11:07.475Z,20.66
2023-04-02T08:12:07.456Z,21.08
2023-04-02T08:13:07.503Z,20.50
2023-04-02T08:14:07.498Z,19.97
2023-04-02T08:15:07.545Z,19.53
2023-04-02T08:16:07.545Z,20.53
2023-04-02T08:17:07.522Z,20.19
2023-04-02T08:18:07.579Z,20.25
2023-04-02T08:19:07.517Z,20.21
2023-04-02T08:20:07.534Z,21.55
2023-04-02T08:21:07.503Z,22.78
2023-04-02T08:22:07.508Z,22.87
2023-04-02T08:23:07.548Z,23.36
2023-04-02T08:24:07.475Z,23.15
2023-04-02T08:25:07.532Z,24.67
2023-04-02T08:26:07.509Z,24.41
2023-04-02T08:27:07.543Z,25.08
2023-04-02T08:28:07.516Z,24.18
2023-04-02T08:29:07.534Z,24.35
2023-04-02T08:30:07.525Z,23.86
2023-04-02T08:31:07.556Z,23.14
2023-04-02T08:32:07.578Z,22.33
2023-04-02T08:33:07.582Z,21.67
2023-04-02T08:34:07.533Z,22.24
2023-04-02T08:35:07.542Z,21.52
2023-04-02T08:36:07.653Z,21.13
2023-04-02T08:37:07.518Z,20.76
2023-04-02T08:38:07.572Z,20.25
2023-04-02T08:39:07.571Z,19.69
2023-04-02T08:40:07.695Z,19.25
2023-04-02T08:41:07.552Z,18.83
2023-04-02T08:42:07.621Z,18.44
2023-04-02T08:43:07.567Z,18.11
2023-04-02T08:44:07.608Z,17.79
2023-04-02T08:45:23.000Z,17.52
2023-04-02T08:46:07.608Z,17.31
2023-04-02T08:47:07.553Z,17.42
2023-04-02T08:48:07.605Z,17.08
2023-04-02T08:49:07.592Z,16.92
2023-04-02T08:50:07.590Z,16.72
2023-04-02T08:51:07.588Z,16.48
2023-04-02T08:52:07.575Z,16.20
2023-04-02T08:53:07.599Z,15.83
2023-04-02T08:54:07.617Z,16.10
2023-04-02T08:55:07.607Z,18.42
2023-04-02T08:56:07.633Z,18.87
2023-04-02T08:57:07.659Z,18.31
2023-04-02T08:58:07.601Z,18.00
2023-04-02T08:59:07.613Z,17.70
2023-04-02T09:00:07.646Z,19.89
2023-04-02T09:01:07.628Z,21.78
2023-04-02T09:02:07.594Z,23.53
2023-04-02T09:03:07.672Z,25.12
2023-04-02T09:04:07.623Z,25.24
2023-04-02T09:05:07.920Z,25.48
2023-04-02T09:06:07.648Z,25.47
2023-04-02T09:07:07.648Z,26.11
2023-04-02T09:08:07.594Z,25.09
2023-04-02T09:09:07.608Z,26.13
2023-04-02T09:10:07.621Z,27.10
2023-04-02T09:11:07.649Z,27.86
2023-04-02T09:12:07.635Z,28.64
2023-04-02T09:13:07.632Z,28.66
2023-04-02T09:14:07.635Z,28.96
2023-04-02T09:15:07.653Z,28.95
2023-04-02T09:16:07.687Z,27.70
2023-04-02T09:17:07.654Z,26.35
2023-04-02T09:18:07.732Z,25.32
2023-04-02T09:19:07.650Z,25.00
2023-04-02T09:20:07.649Z,24.67
2023-04-02T09:21:07.658Z,23.73
2023-04-02T09:22:07.763Z,23.15
2023-04-02T09:23:07.678Z,22.78
2023-04-02T09:24:07.672Z,22.65
2023-04-02T09:25:07.691Z,22.06
2023-04-02T09:26:07.678Z,22.41
2023-04-02T09:27:07.683Z,22.79
2023-04-02T09:28:07.675Z,22.58
2023-04-02T09:29:07.690Z,22.91
2023-04-02T09:30:07.684Z,22.96
2023-04-02T09:31:07.838Z,22.52
2023-04-02T09:32:07.698Z,22.03
2023-04-02T09:33:07.979Z,21.61
2023-04-02T09:34:07.715Z,21.32
2023-04-02T09:35:15.127Z,21.10
2023-04-02T09:36:07.812Z,20.91
2023-04-02T09:37:07.719Z,20.77
2023-04-02T09:38:07.758Z,20.74
2023-04-02T09:39:07.736Z,20.81
2023-04-02T09:40:07.732Z,20.95
2023-04-02T09:41:07.722Z,21.01
2023-04-02T09:42:07.750Z,20.95
2023-04-02T09:43:07.742Z,20.93
2023-04-02T09:44:07.739Z,20.81
2023-04-02T09:45:07.760Z,20.41
2023-04-02T09:46:07.727Z,20.07
2023-04-02T09:47:07.798Z,19.79
2023-04-02T09:48:07.755Z,19.65
2023-04-02T09:49:07.722Z,19.42
2023-04-02T09:50:07.728Z,19.32
2023-04-02T09:51:07.768Z,19.22
2023-04-02T09:52:07.749Z,19.08
2023-04-02T09:53:07.741Z,18.95
2023-04-02T09:54:07.771Z,18.78
2023-04-02T09:55:07.754Z,18.62
2023-04-02T09:56:07.764Z,18.41
2023-04-02T09:57:07.791Z,18.33
2023-04-02T09:58:07.763Z,18.35
2023-04-02T10:00:12.289Z,18.45
2023-04-02T10:01:07.826Z,18.57
2023-04-02T10:02:07.791Z,18.49
2023-04-02T10:03:07.789Z,18.29
2023-04-02T10:04:07.776Z,18.22
2023-04-02T10:05:07.799Z,18.19
2023-04-02T10:06:07.790Z,18.09
2023-04-02T10:07:07.810Z,18.10
2023-04-02T10:08:07.786Z,18.09
2023-04-02T10:09:07.781Z,18.07
2023-04-02T10:10:07.789Z,17.95
2023-04-02T10:11:07.807Z,17.85
2023-04-02T10:12:07.812Z,17.77
2023-04-02T10:13:07.793Z,17.66
2023-04-02T10:14:07.817Z,17.65
2023-04-02T10:15:07.833Z,17.69
2023-04-02T10:16:07.855Z,17.62
2023-04-02T10:17:07.871Z,17.60
2023-04-02T10:18:07.901Z,17.67
2023-04-02T10:19:07.810Z,17.78
2023-04-02T10:20:07.819Z,17.85
2023-04-02T10:21:07.838Z,17.99
2023-04-02T10:22:07.815Z,17.94
2023-04-02T10:23:07.818Z,17.92
2023-04-02T10:24:07.848Z,18.11
2023-04-02T10:25:07.848Z,18.14
2023-04-02T10:26:07.842Z,18.21
2023-04-02T10:27:07.828Z,18.13
2023-04-02T10:28:07.885Z,18.06
2023-04-02T10:29:07.855Z,18.07
2023-04-02T10:30:07.859Z,18.11
2023-04-02T10:31:07.909Z,18.21
2023-04-02T10:32:07.848Z,18.25
2023-04-02T10:33:08.759Z,18.20
2023-04-02T10:34:07.874Z,18.07
2023-04-02T10:35:07.892Z,18.02
2023-04-02T10:36:08.002Z,18.11
2023-04-02T10:37:07.873Z,18.13
2023-04-02T10:38:07.853Z,18.07
2023-04-02T10:39:07.879Z,18.03
2023-04-02T10:40:07.912Z,18.00
2023-04-02T10:41:07.879Z,17.96
2023-04-02T10:42:07.921Z,17.90
2023-04-02T10:43:07.911Z,17.89
2023-04-02T10:44:18.940Z,17.94
2023-04-02T10:45:07.906Z,18.05
2023-04-02T10:46:07.989Z,18.13
2023-04-02T10:47:07.914Z,18.18
2023-04-02T10:48:07.933Z,18.19
2023-04-02T10:49:07.973Z,18.12
2023-04-02T10:50:07.938Z,18.08
2023-04-02T10:51:07.939Z,18.10
2023-04-02T10:52:07.897Z,18.11
2023-04-02T10:53:07.940Z,18.13
2023-04-02T10:54:07.930Z,18.18
2023-04-02T10:55:07.948Z,18.22
2023-04-02T10:56:07.935Z,18.26
2023-04-02T10:57:07.972Z,18.27
2023-04-02T10:58:07.906Z,18.33
2023-04-02T10:59:07.928Z,18.43
2023-04-02T11:00:07.908Z,18.55
2023-04-02T11:01:08.022Z,18.60
2023-04-02T11:02:07.954Z,18.64
2023-04-02T11:03:08.001Z,18.68
2023-04-02T11:04:07.920Z,18.71
2023-04-02T11:05:07.958Z,18.76
2023-04-02T11:07:14.613Z,18.75
2023-04-02T11:08:07.944Z,18.71
2023-04-02T11:09:07.978Z,18.67
2023-04-02T11:10:07.946Z,18.66
2023-04-02T11:11:07.935Z,18.62
2023-04-02T11:12:07.938Z,18.61
2023-04-02T11:13:07.956Z,18.59
2023-04-02T11:14:07.941Z,18.55
2023-04-02T11:15:07.948Z,18.57
2023-04-02T11:16:08.078Z,18.49
2023-04-02T11:17:07.951Z,18.46
2023-04-02T11:18:07.974Z,18.44
2023-04-02T11:19:07.987Z,18.38
2023-04-02T11:20:07.974Z,18.30
2023-04-02T11:21:08.010Z,18.22
2023-04-02T11:22:07.997Z,18.17
2023-04-02T11:23:07.992Z,18.13
2023-04-02T11:24:07.969Z,18.14
2023-04-02T11:25:07.975Z,18.15
2023-04-02T11:26:07.976Z,18.19
2023-04-02T11:27:08.026Z,18.21
2023-04-02T11:28:08.006Z,18.24
2023-04-02T11:29:08.047Z,18.28
2023-04-02T11:30:08.030Z,18.23
2023-04-02T11:31:08.007Z,18.19
2023-04-02T11:32:08.014Z,18.09
2023-04-02T11:33:08.012Z,18.00
2023-04-02T11:34:08.004Z,17.96
2023-04-02T11:35:08.040Z,17.89
2023-04-02T11:36:08.083Z,17.82
2023-04-02T11:37:08.034Z,17.78
2023-04-02T11:38:08.012Z,17.83
2023-04-02T11:39:16.976Z,17.90
2023-04-02T11:40:08.019Z,17.94
2023-04-02T11:41:08.027Z,17.97
2023-04-02T11:42:08.029Z,17.94
2023-04-02T11:43:08.045Z,17.87
2023-04-02T11:44:08.049Z,17.76
2023-04-02T11:45:08.071Z,17.74
2023-04-02T11:46:08.078Z,17.77
2023-04-02T11:47:08.079Z,17.79
2023-04-02T11:48:08.242Z,17.77
2023-04-02T11:49:08.061Z,17.67
2023-04-02T11:50:08.097Z,17.65
2023-04-02T11:51:08.069Z,17.67
2023-04-02T11:52:12.347Z,17.86
2023-04-02T11:53:08.078Z,18.06
2023-04-02T11:54:08.093Z,18.19
2023-04-02T11:55:08.086Z,18.30
2023-04-02T11:56:08.076Z,18.34
2023-04-02T11:57:08.096Z,18.32
2023-04-02T11:59:08.100Z,18.34
2023-04-02T12:00:08.064Z,18.32
2023-04-02T12:01:08.080Z,18.33
2023-04-02T12:02:08.118Z,18.29
2023-04-02T12:03:08.137Z,18.33
2023-04-02T12:04:08.076Z,18.42
2023-04-02T12:05:08.138Z,18.46
2023-04-02T12:06:08.091Z,18.49
2023-04-02T12:09:08.095Z,18.48
2023-04-02T12:10:08.211Z,18.46
2023-04-02T12:11:08.089Z,18.44
2023-04-02T12:12:08.117Z,18.43
2023-04-02T12:14:08.101Z,18.41
2023-04-02T12:15:08.137Z,18.43
2023-04-02T12:16:08.111Z,18.50
2023-04-02T12:17:10.034Z,18.52
2023-04-02T12:18:08.193Z,18.54
2023-04-02T12:19:08.103Z,18.56
2023-04-02T12:21:08.116Z,18.60
2023-04-02T12:22:08.120Z,18.65
2023-04-02T12:23:08.112Z,18.66
2023-04-02T12:24:08.163Z,18.64
2023-04-02T12:25:08.162Z,18.68
2023-04-02T12:26:08.161Z,18.74
2023-04-02T12:27:08.155Z,18.80
2023-04-02T12:28:08.161Z,18.87
2023-04-02T12:29:08.164Z,18.89
2023-04-02T12:30:08.166Z,18.96
2023-04-02T12:31:08.203Z,19.01
2023-04-02T12:32:08.136Z,19.02
2023-04-02T12:33:08.274Z,19.01
2023-04-02T12:34:08.142Z,18.99
2023-04-02T12:35:08.148Z,18.97
2023-04-02T12:37:08.185Z,18.89
2023-04-02T12:38:08.185Z,18.87
2023-04-02T12:39:08.209Z,18.80
2023-04-02T12:40:08.171Z,18.75
2023-04-02T12:41:08.189Z,18.67
2023-04-02T12:42:08.178Z,18.61
2023-04-02T12:43:08.200Z,18.56
2023-04-02T12:44:08.150Z,18.51
2023-04-02T12:45:08.205Z,18.44
2023-04-02T12:46:08.233Z,18.34
2023-04-02T12:47:08.225Z,18.24
2023-04-02T12:48:08.202Z,18.14
2023-04-02T12:49:08.193Z,18.08
2023-04-02T12:50:08.153Z,18.04
2023-04-02T12:51:08.228Z,18.01
2023-04-02T12:52:08.241Z,18.00
2023-04-02T12:53:08.226Z,17.99
2023-04-02T12:54:08.202Z,17.96
2023-04-02T12:55:08.221Z,17.95
2023-04-02T12:56:08.264Z,18.00
2023-04-02T12:57:08.327Z,18.08
2023-04-02T12:58:08.213Z,18.17
2023-04-02T13:00:08.244Z,18.10
2023-04-02T13:01:08.217Z,18.03
2023-04-02T13:02:08.242Z,18.04
2023-04-02T13:03:08.218Z,18.13
2023-04-02T13:05:08.264Z,18.17
2023-04-02T13:06:08.267Z,18.08
2023-04-02T13:07:08.236Z,17.96
2023-04-02T13:08:08.266Z,17.90
2023-04-02T13:09:08.263Z,17.96
2023-04-02T13:10:08.265Z,18.01
2023-04-02T13:11:08.271Z,18.15
2023-04-02T13:12:08.247Z,18.26
2023-04-02T13:13:08.222Z,18.34
2023-04-02T13:14:08.312Z,18.28
2023-04-02T13:16:08.333Z,18.33
2023-04-02T13:17:08.255Z,18.35
2023-04-02T13:18:08.300Z,18.34
2023-04-02T13:19:08.300Z,18.37
2023-04-02T13:20:08.231Z,18.44
2023-04-02T13:21:08.326Z,18.41
2023-04-02T13:22:08.307Z,18.36
2023-04-02T13:23:08.302Z,18.34
2023-04-02T13:25:08.321Z,18.29
2023-04-02T13:26:08.298Z,18.21
2023-04-02T13:27:08.333Z,18.17
2023-04-02T13:28:08.287Z,18.10
2023-04-02T13:29:08.319Z,18.09
2023-04-02T13:30:08.262Z,18.08
2023-04-02T13:31:08.316Z,17.97
2023-04-02T13:32:08.299Z,17.88
2023-04-02T13:33:08.404Z,17.86
2023-04-02T13:34:08.277Z,17.85
2023-04-02T13:35:08.330Z,17.86
2023-04-02T13:36:08.434Z,17.90
2023-04-02T13:37:08.342Z,17.95
2023-04-02T13:38:08.353Z,17.99
2023-04-02T13:39:08.345Z,18.07
2023-04-02T13:40:09.180Z,18.19
2023-04-02T13:41:08.332Z,18.27
2023-04-02T13:42:08.327Z,18.37
2023-04-02T13:43:08.341Z,18.50
2023-04-02T13:44:08.358Z,18.61
2023-04-02T13:45:08.365Z,18.69
2023-04-02T13:46:08.360Z,18.75
2023-04-02T13:47:08.356Z,18.78
2023-04-02T13:48:08.426Z,18.79
2023-04-02T13:49:08.392Z,18.78
2023-04-02T13:50:08.356Z,18.79
2023-04-02T13:51:08.367Z,18.82
2023-04-02T13:52:08.338Z,18.83
2023-04-02T13:54:08.360Z,18.82
2023-04-02T13:55:08.386Z,18.81
2023-04-02T13:56:08.391Z,18.79
2023-04-02T13:57:08.500Z,18.76
2023-04-02T13:58:08.400Z,18.72
2023-04-02T13:59:08.392Z,18.65
2023-04-02T14:00:08.393Z,18.60
2023-04-02T14:01:08.415Z,18.54
2023-04-02T14:02:08.412Z,18.45
2023-04-02T14:03:08.465Z,18.42
2023-04-02T14:04:08.486Z,18.40
2023-04-02T14:06:08.466Z,18.39
2023-04-02T14:07:08.394Z,18.35
2023-04-02T14:08:08.431Z,18.31
2023-04-02T14:09:08.397Z,18.28
2023-04-02T14:10:08.429Z,18.23
2023-04-02T14:11:08.442Z,18.16
2023-04-02T14:12:08.385Z,18.13
2023-04-02T14:13:08.416Z,18.10
2023-04-02T14:14:08.444Z,18.07
2023-04-02T14:15:08.387Z,18.04
2023-04-02T14:17:08.456Z,18.02
2023-04-02T14:19:08.394Z,17.98
2023-04-02T14:20:08.430Z,17.96
2023-04-02T14:21:08.425Z,17.91
2023-04-02T14:22:08.460Z,17.86
2023-04-02T14:23:08.405Z,17.85
2023-04-02T14:24:08.415Z,17.87
2023-04-02T14:25:08.427Z,17.92
2023-04-02T14:26:08.454Z,18.01
2023-04-02T14:27:08.481Z,18.07
2023-04-02T14:28:08.500Z,18.10
2023-04-02T14:29:08.490Z,18.13
2023-04-02T14:30:08.462Z,18.12
2023-04-02T14:31:08.475Z,18.15
2023-04-02T14:32:08.486Z,18.16
2023-04-02T14:33:08.481Z,18.18
2023-04-02T14:34:08.509Z,18.24
2023-04-02T14:35:08.508Z,18.29
2023-04-02T14:36:08.497Z,18.35
2023-04-02T14:37:08.481Z,18.38
2023-04-02T14:38:08.803Z,18.41
2023-04-02T14:39:08.499Z,18.35
2023-04-02T14:40:08.467Z,18.34
2023-04-02T14:44:08.534Z,18.36
2023-04-02T14:45:08.528Z,18.37
2023-04-02T14:46:08.500Z,18.41
2023-04-02T14:48:08.517Z,18.45
2023-04-02T14:50:08.503Z,18.49
2023-04-02T14:51:08.527Z,18.54
2023-04-02T14:56:08.531Z,18.51
2023-04-02T14:57:08.549Z,18.41
2023-04-02T14:58:08.533Z,18.36